Time;durP1;ratioP1;P1;durP2;ratioP2;P2;SDS_P1;SDS_P2;PMS_P1;PMS_P2;Temp;Humidity;BMP_temperature;BMP_pressure;BME280_temperature;BME280_humidity;BME280_pressure;Samples;Min_cycle;Max_cycle;Signal;HPM_P1;HPM_P2
2021/08/11 00:00:37;;;;;;;9.35;6.70;;;16.30;99.90;;;;;;5031330;28;20026;-74
2021/08/11 00:03:03;;;;;;;12.77;7.47;;;16.20;99.90;;;;;;5031242;28;20660;-74
2021/08/11 00:05:29;;;;;;;10.25;7.55;;;16.20;99.90;;;;;;5046042;28;20030;-74
2021/08/11 00:07:54;;;;;;;13.93;7.70;;;16.10;99.90;;;;;;5031637;28;20021;-74
2021/08/11 00:10:20;;;;;;;12.65;7.47;;;16.10;99.90;;;;;;5035638;28;20029;-74
2021/08/11 00:12:46;;;;;;;13.50;8.43;;;16.00;99.90;;;;;;5052717;28;20021;-74
2021/08/11 00:15:12;;;;;;;9.80;8.02;;;16.00;99.90;;;;;;5042877;28;20077;-73
2021/08/11 00:17:38;;;;;;;10.85;7.85;;;16.00;99.90;;;;;;5013064;28;20094;-74
2021/08/11 00:20:05;;;;;;;10.75;6.93;;;15.90;99.90;;;;;;5030338;28;20028;-74
2021/08/11 00:22:31;;;;;;;10.10;7.45;;;15.80;99.90;;;;;;5032411;28;20022;-73
2021/08/11 00:24:57;;;;;;;8.48;7.35;;;15.80;99.90;;;;;;5041859;28;20034;-73
2021/08/11 00:27:22;;;;;;;13.48;7.13;;;15.70;99.90;;;;;;5039392;28;20072;-74
2021/08/11 00:29:48;;;;;;;13.20;8.10;;;15.80;99.90;;;;;;5030877;28;20044;-73
2021/08/11 00:32:14;;;;;;;11.48;8.13;;;15.70;99.90;;;;;;5030783;28;20036;-74
2021/08/11 00:34:41;;;;;;;10.65;7.45;;;15.70;99.90;;;;;;5030209;28;20395;-74
2021/08/11 00:37:06;;;;;;;9.23;6.53;;;15.60;99.90;;;;;;5030369;28;20018;-74
2021/08/11 00:39:32;;;;;;;11.20;7.03;;;15.60;99.90;;;;;;5033742;28;20022;-74
2021/08/11 00:41:57;;;;;;;10.85;7.35;;;15.60;99.90;;;;;;5034269;28;20109;-74
2021/08/11 00:44:23;;;;;;;9.20;6.90;;;15.50;99.90;;;;;;5033801;28;20081;-74
2021/08/11 00:46:50;;;;;;;12.27;7.43;;;15.50;99.90;;;;;;5033569;28;20060;-74
2021/08/11 00:49:17;;;;;;;13.20;7.82;;;15.50;99.90;;;;;;5034297;28;20018;-74
2021/08/11 00:51:43;;;;;;;14.45;8.77;;;15.60;99.90;;;;;;5034246;28;20487;-75
2021/08/11 00:54:10;;;;;;;16.02;8.50;;;15.50;99.90;;;;;;5034247;28;20655;-74
2021/08/11 00:56:47;;;;;;;14.45;8.10;;;15.40;99.90;;;;;;5033610;28;20104;-74
2021/08/11 00:59:16;;;;;;;18.80;9.07;;;15.40;99.90;;;;;;5034286;28;20075;-74
2021/08/11 01:01:42;;;;;;;11.13;9.63;;;15.40;99.90;;;;;;5016478;28;20032;-74
2021/08/11 01:04:10;;;;;;;13.68;8.60;;;15.40;99.90;;;;;;5033861;28;20021;-74
2021/08/11 01:06:37;;;;;;;15.93;8.60;;;15.30;99.90;;;;;;5033536;28;20416;-73
2021/08/11 01:09:03;;;;;;;13.35;9.20;;;15.30;99.90;;;;;;5035412;28;20022;-75
2021/08/11 01:11:30;;;;;;;11.95;9.48;;;15.30;99.90;;;;;;5036906;28;20032;-74
2021/08/11 01:13:58;;;;;;;16.10;8.55;;;15.30;99.90;;;;;;5034945;28;20067;-75
2021/08/11 01:16:23;;;;;;;13.55;9.10;;;15.20;99.90;;;;;;5033240;28;20444;-74
2021/08/11 01:18:49;;;;;;;16.15;9.30;;;15.20;99.90;;;;;;5033582;28;20057;-75
2021/08/11 01:21:18;;;;;;;11.02;8.98;;;15.20;99.90;;;;;;5033512;28;20026;-75
2021/08/11 01:24:05;;;;;;;17.02;9.05;;;15.20;99.90;;;;;;5033381;28;20434;-75
2021/08/11 01:26:53;;;;;;;10.40;8.73;;;15.20;99.90;;;;;;5048358;28;20033;-75
2021/08/11 01:29:48;;;;;;;17.25;8.70;;;15.10;99.90;;;;;;5033613;28;20040;-75
2021/08/11 01:32:22;;;;;;;12.15;9.95;;;15.10;99.90;;;;;;5010150;28;20048;-75
2021/08/11 01:34:51;;;;;;;13.63;9.20;;;15.10;99.90;;;;;;5032942;28;20029;-75
2021/08/11 01:37:25;;;;;;;12.60;8.93;;;15.10;99.90;;;;;;5033614;28;20049;-75
2021/08/11 01:39:55;;;;;;;15.13;9.45;;;15.10;99.90;;;;;;5033527;28;20036;-75
2021/08/11 01:42:36;;;;;;;16.17;10.20;;;15.10;99.90;;;;;;5032266;28;20026;-75
2021/08/11 01:45:02;;;;;;;20.65;9.73;;;15.10;99.90;;;;;;5032864;28;20103;-75
2021/08/11 01:47:36;;;;;;;18.08;9.40;;;15.00;99.90;;;;;;5033002;28;20159;-75
2021/08/11 01:50:02;;;;;;;12.20;8.05;;;15.00;99.90;;;;;;5032241;28;20029;-75
2021/08/11 01:52:28;;;;;;;11.45;7.95;;;14.90;99.90;;;;;;5015072;28;20026;-76
2021/08/11 01:54:54;;;;;;;13.93;8.93;;;14.90;99.90;;;;;;5032414;28;20035;-75
2021/08/11 01:57:20;;;;;;;10.10;7.75;;;14.90;99.90;;;;;;5032562;28;20064;-74
2021/08/11 01:59:47;;;;;;;10.98;8.02;;;14.80;99.90;;;;;;5048377;28;20103;-75
2021/08/11 02:02:17;;;;;;;17.08;8.65;;;14.80;99.90;;;;;;5032915;28;20391;-75
2021/08/11 02:04:43;;;;;;;12.45;8.15;;;14.80;99.90;;;;;;5032137;28;20175;-75
2021/08/11 02:07:11;;;;;;;10.43;7.47;;;14.80;99.90;;;;;;5033089;28;20022;-75
2021/08/11 02:09:37;;;;;;;11.70;7.18;;;14.80;99.90;;;;;;5048173;28;20029;-75
2021/08/11 02:12:04;;;;;;;10.40;7.65;;;14.80;99.90;;;;;;5032751;28;20100;-75
2021/08/11 02:14:30;;;;;;;16.45;8.02;;;14.80;99.90;;;;;;5031946;28;20109;-75
2021/08/11 02:16:56;;;;;;;12.85;8.25;;;14.80;99.90;;;;;;5032747;28;20388;-75
2021/08/11 02:19:21;;;;;;;11.60;8.73;;;14.80;99.90;;;;;;5032416;28;20032;-75
2021/08/11 02:21:47;;;;;;;11.20;8.68;;;14.80;99.90;;;;;;5032762;28;20067;-75
2021/08/11 02:24:13;;;;;;;13.70;8.88;;;14.80;99.90;;;;;;5031657;28;20037;-75
2021/08/11 02:27:00;;;;;;;14.70;9.65;;;14.80;99.90;;;;;;5031834;28;20475;-75
2021/08/11 02:29:35;;;;;;;13.73;10.15;;;14.80;99.90;;;;;;5032290;28;20053;-75
2021/08/11 02:32:24;;;;;;;11.95;9.65;;;14.80;99.90;;;;;;5032507;28;20387;-75
2021/08/11 02:34:58;;;;;;;10.13;8.70;;;14.70;99.90;;;;;;4985335;28;20057;-75
2021/08/11 02:37:32;;;;;;;14.02;9.65;;;14.60;99.90;;;;;;5032474;28;20057;-75
2021/08/11 02:40:23;;;;;;;18.60;10.05;;;14.60;99.90;;;;;;5032243;28;20029;-74
2021/08/11 02:43:09;;;;;;;16.00;10.18;;;14.70;99.90;;;;;;5032439;28;20025;-75
2021/08/11 02:45:39;;;;;;;14.60;10.32;;;14.70;99.90;;;;;;5031794;28;20034;-75
2021/08/11 02:48:06;;;;;;;15.27;10.07;;;14.60;99.90;;;;;;5032000;28;20029;-75
2021/08/11 02:50:33;;;;;;;15.52;9.75;;;14.60;99.90;;;;;;5032099;28;20104;-76
2021/08/11 02:53:00;;;;;;;12.43;9.68;;;14.60;99.90;;;;;;5032137;28;20071;-76
2021/08/11 02:55:26;;;;;;;17.17;10.60;;;14.60;99.90;;;;;;5031497;28;20030;-75
2021/08/11 02:57:52;;;;;;;15.82;11.15;;;14.50;99.90;;;;;;5032194;28;20426;-75
2021/08/11 03:00:19;;;;;;;20.38;10.65;;;14.50;99.90;;;;;;5032072;28;20025;-75
2021/08/11 03:02:45;;;;;;;13.35;10.25;;;14.50;99.90;;;;;;5031016;28;20064;-75
2021/08/11 03:05:11;;;;;;;14.85;10.15;;;14.50;99.90;;;;;;5031309;28;20030;-75
2021/08/11 03:07:38;;;;;;;13.38;9.85;;;14.50;99.90;;;;;;5032051;28;20026;-75
2021/08/11 03:10:05;;;;;;;11.40;8.38;;;14.40;99.90;;;;;;5031872;28;20522;-76
2021/08/11 03:12:31;;;;;;;11.32;8.38;;;14.40;99.90;;;;;;5031864;28;20041;-75
2021/08/11 03:14:57;;;;;;;12.93;8.95;;;14.40;99.90;;;;;;5013515;28;20485;-75
2021/08/11 03:17:27;;;;;;;15.60;9.48;;;14.50;99.90;;;;;;5031616;28;20033;-75
2021/08/11 03:19:53;;;;;;;16.20;9.73;;;14.50;99.90;;;;;;5014241;28;20349;-75
2021/08/11 03:22:18;;;;;;;15.82;9.43;;;14.50;99.90;;;;;;5031382;28;20033;-74
2021/08/11 03:24:44;;;;;;;11.90;9.57;;;14.50;99.90;;;;;;5012326;28;20033;-74
2021/08/11 03:27:10;;;;;;;12.57;10.18;;;14.50;99.90;;;;;;5030981;28;20022;-75
2021/08/11 03:29:35;;;;;;;12.85;9.73;;;14.40;99.90;;;;;;5030770;28;20032;-75
2021/08/11 03:32:02;;;;;;;13.75;9.23;;;14.30;99.90;;;;;;5031395;28;20112;-75
2021/08/11 03:34:28;;;;;;;15.38;10.27;;;14.30;99.90;;;;;;5030837;28;20040;-74
2021/08/11 03:36:54;;;;;;;17.83;10.73;;;14.30;99.90;;;;;;5031524;28;20022;-75
2021/08/11 03:39:20;;;;;;;15.18;10.32;;;14.30;99.90;;;;;;5031486;28;20022;-75
2021/08/11 03:41:45;;;;;;;18.42;10.65;;;14.30;99.90;;;;;;5031566;28;20471;-75
2021/08/11 03:44:11;;;;;;;19.33;11.07;;;14.20;99.90;;;;;;5031271;28;20040;-75
2021/08/11 03:46:37;;;;;;;17.52;9.65;;;14.20;99.90;;;;;;5045158;28;20030;-74
2021/08/11 03:49:02;;;;;;;15.48;10.57;;;14.20;99.90;;;;;;5031248;28;20120;-75
2021/08/11 03:51:28;;;;;;;15.07;10.02;;;14.20;99.90;;;;;;5031369;28;20539;-75
2021/08/11 03:53:54;;;;;;;15.13;10.00;;;14.10;99.90;;;;;;5031218;28;20082;-75
2021/08/11 03:56:19;;;;;;;19.80;10.75;;;14.20;99.90;;;;;;5030703;28;20108;-75
2021/08/11 03:58:45;;;;;;;16.65;10.93;;;14.20;99.90;;;;;;5031096;28;20026;-74
2021/08/11 04:01:11;;;;;;;14.40;10.40;;;14.20;99.90;;;;;;5031091;28;20025;-75
2021/08/11 04:03:36;;;;;;;15.32;11.15;;;14.30;99.90;;;;;;5030963;28;20093;-74
2021/08/11 04:06:02;;;;;;;24.38;12.48;;;14.40;99.90;;;;;;5045759;28;20025;-75
2021/08/11 04:08:28;;;;;;;14.98;11.48;;;14.40;99.90;;;;;;5046710;28;20064;-75
2021/08/11 04:10:53;;;;;;;19.02;10.75;;;14.40;99.90;;;;;;5030150;28;20091;-75
2021/08/11 04:13:19;;;;;;;20.83;12.25;;;14.60;99.90;;;;;;5032581;28;20364;-75
2021/08/11 04:15:46;;;;;;;17.52;11.77;;;14.70;99.90;;;;;;5034504;28;20029;-74
2021/08/11 04:18:12;;;;;;;16.30;11.85;;;14.70;99.90;;;;;;5022459;28;20037;-74
2021/08/11 04:20:39;;;;;;;20.40;12.20;;;14.70;99.90;;;;;;5032622;28;20017;-75
2021/08/11 04:23:05;;;;;;;15.55;11.07;;;14.70;99.90;;;;;;5033284;28;20029;-74
2021/08/11 04:25:31;;;;;;;18.67;12.02;;;14.80;99.90;;;;;;5064076;23;20045;-77
2021/08/11 04:27:57;;;;;;;17.55;10.82;;;14.80;99.90;;;;;;5034306;28;20502;-76
2021/08/11 04:30:23;;;;;;;14.50;9.07;;;14.70;99.90;;;;;;5016765;28;20021;-76
2021/08/11 04:32:48;;;;;;;12.63;8.50;;;14.70;99.90;;;;;;5034818;28;20034;-76
2021/08/11 04:35:14;;;;;;;13.52;9.48;;;14.80;99.90;;;;;;5034170;28;20037;-76
2021/08/11 04:37:40;;;;;;;10.57;9.05;;;14.90;99.90;;;;;;5033082;28;20102;-75
2021/08/11 04:40:08;;;;;;;14.02;9.32;;;14.80;99.90;;;;;;5020273;28;20022;-75
2021/08/11 04:42:34;;;;;;;14.80;8.85;;;14.80;99.90;;;;;;5031910;28;20021;-76
2021/08/11 04:45:00;;;;;;;13.48;8.70;;;14.80;99.90;;;;;;5034218;28;20022;-76
2021/08/11 04:47:26;;;;;;;9.98;8.15;;;14.80;99.90;;;;;;5020764;28;20401;-76
2021/08/11 04:49:52;;;;;;;12.40;9.00;;;14.70;99.90;;;;;;5015041;28;20033;-76
2021/08/11 04:52:17;;;;;;;12.65;9.65;;;14.90;99.90;;;;;;5013502;28;20057;-76
2021/08/11 04:54:43;;;;;;;11.95;9.40;;;15.00;99.90;;;;;;5014057;28;20034;-76
2021/08/11 04:57:09;;;;;;;13.13;9.38;;;15.00;99.90;;;;;;5019165;28;20029;-76
2021/08/11 04:59:34;;;;;;;16.50;9.02;;;15.10;99.90;;;;;;5034191;28;20041;-76
2021/08/11 05:02:00;;;;;;;17.45;8.65;;;15.10;99.90;;;;;;5034648;28;20025;-76
2021/08/11 05:04:26;;;;;;;12.18;7.32;;;15.00;99.90;;;;;;5033884;28;20384;-72
2021/08/11 05:06:52;;;;;;;9.40;7.18;;;15.20;99.90;;;;;;5031783;28;20079;-72
2021/08/11 05:09:17;;;;;;;10.60;6.97;;;15.20;99.90;;;;;;5033660;28;20021;-71
2021/08/11 05:11:43;;;;;;;12.20;7.97;;;15.30;99.90;;;;;;5033531;28;20030;-73
2021/08/11 05:14:09;;;;;;;9.95;7.93;;;15.50;99.90;;;;;;5033332;28;20057;-71
2021/08/11 05:16:34;;;;;;;11.98;7.53;;;15.50;99.90;;;;;;5033306;28;20053;-73
2021/08/11 05:19:00;;;;;;;10.82;7.97;;;15.50;99.90;;;;;;5032135;28;20026;-73
2021/08/11 05:21:26;;;;;;;8.63;6.40;;;15.50;99.90;;;;;;5033594;28;20018;-74
2021/08/11 05:23:52;;;;;;;11.18;7.40;;;15.50;99.90;;;;;;5033498;28;20438;-75
2021/08/11 05:26:18;;;;;;;10.57;6.63;;;15.60;99.90;;;;;;5032115;28;20030;-76
2021/08/11 05:28:45;;;;;;;10.40;7.32;;;15.60;99.90;;;;;;5033534;28;20045;-75
2021/08/11 05:31:11;;;;;;;12.00;7.10;;;15.50;99.90;;;;;;5033642;28;20060;-74
2021/08/11 05:33:37;;;;;;;8.60;7.15;;;15.20;99.90;;;;;;5032933;28;20056;-75
2021/08/11 05:36:03;;;;;;;8.35;7.40;;;15.40;99.90;;;;;;5031684;28;20593;-74
2021/08/11 05:38:30;;;;;;;13.30;8.15;;;15.50;99.90;;;;;;5033344;28;20509;-76
2021/08/11 05:40:56;;;;;;;13.35;8.60;;;15.70;99.90;;;;;;5033263;28;20029;-75
2021/08/11 05:43:22;;;;;;;13.85;8.85;;;15.70;99.90;;;;;;5032866;28;20066;-75
2021/08/11 05:45:47;;;;;;;11.27;8.82;;;15.70;99.90;;;;;;5031502;28;20021;-74
2021/08/11 05:48:13;;;;;;;11.60;9.00;;;15.70;99.90;;;;;;5033953;28;20086;-73
2021/08/11 05:50:39;;;;;;;12.48;8.43;;;15.80;99.90;;;;;;5053037;28;20040;-75
2021/08/11 05:53:05;;;;;;;14.38;8.07;;;15.80;99.90;;;;;;5052939;28;20114;-75
2021/08/11 05:55:31;;;;;;;14.15;9.55;;;15.90;99.90;;;;;;5052126;28;20439;-73
2021/08/11 05:57:56;;;;;;;9.57;7.65;;;15.90;99.90;;;;;;5052913;28;20028;-75
2021/08/11 06:00:22;;;;;;;12.77;7.70;;;15.80;99.90;;;;;;5053255;28;20021;-75
2021/08/11 06:02:48;;;;;;;15.73;8.55;;;15.80;99.90;;;;;;5044235;28;20100;-73
2021/08/11 06:05:13;;;;;;;12.82;8.00;;;15.90;99.90;;;;;;5020725;28;20069;-73
2021/08/11 06:07:39;;;;;;;13.98;7.80;;;16.00;99.90;;;;;;5011369;28;20030;-73
2021/08/11 06:10:06;;;;;;;10.25;8.20;;;16.00;99.90;;;;;;5021794;28;20041;-74
2021/08/11 06:12:32;;;;;;;8.88;7.38;;;16.00;99.90;;;;;;5028159;28;20040;-72
2021/08/11 06:14:58;;;;;;;11.73;6.90;;;16.10;99.90;;;;;;5030846;28;20631;-72
2021/08/11 06:17:23;;;;;;;8.02;6.90;;;16.10;99.90;;;;;;5032867;28;20044;-75
2021/08/11 06:19:50;;;;;;;14.25;6.70;;;16.10;99.90;;;;;;5032228;28;20364;-74
2021/08/11 06:22:16;;;;;;;8.38;6.93;;;16.00;99.90;;;;;;5033089;28;20380;-75
2021/08/11 06:24:43;;;;;;;7.97;6.90;;;16.00;99.90;;;;;;5031822;28;20091;-75
2021/08/11 06:27:08;;;;;;;12.30;6.60;;;16.00;99.90;;;;;;5029855;28;20029;-74
2021/08/11 06:29:34;;;;;;;7.65;6.47;;;16.10;99.90;;;;;;5012771;28;20034;-74
2021/08/11 06:32:02;;;;;;;7.32;6.18;;;16.10;99.90;;;;;;5012779;28;20530;-74
2021/08/11 06:34:27;;;;;;;13.90;6.50;;;16.20;99.90;;;;;;5011737;28;20104;-73
2021/08/11 06:36:53;;;;;;;7.90;6.50;;;16.30;99.90;;;;;;5012056;28;20109;-73
2021/08/11 06:39:19;;;;;;;11.20;6.90;;;16.40;99.90;;;;;;5011041;28;20038;-73
2021/08/11 06:41:45;;;;;;;13.98;6.53;;;16.50;99.90;;;;;;5012068;28;20030;-73
2021/08/11 06:44:11;;;;;;;11.75;7.00;;;16.60;99.90;;;;;;5012318;28;20527;-74
2021/08/11 06:46:37;;;;;;;8.77;6.90;;;16.70;99.90;;;;;;5011952;28;20026;-74
2021/08/11 06:49:02;;;;;;;10.32;7.05;;;16.70;99.90;;;;;;5019614;28;20026;-74
2021/08/11 06:51:28;;;;;;;10.73;6.68;;;16.60;99.90;;;;;;5031990;28;20060;-74
2021/08/11 06:53:53;;;;;;;8.32;6.72;;;16.70;99.90;;;;;;5028642;28;20028;-74
2021/08/11 06:56:19;;;;;;;8.23;6.35;;;16.70;99.90;;;;;;5020801;28;20037;-74
2021/08/11 06:58:45;;;;;;;9.05;6.05;;;16.80;99.90;;;;;;5021087;28;20528;-74
2021/08/11 07:01:11;;;;;;;8.65;6.25;;;17.00;99.90;;;;;;5025521;28;20026;-74
2021/08/11 07:03:36;;;;;;;12.15;6.18;;;17.10;99.90;;;;;;5023222;28;20617;-74
2021/08/11 07:06:02;;;;;;;8.15;5.72;;;17.20;99.90;;;;;;5018427;28;20024;-75
2021/08/11 07:08:29;;;;;;;8.75;5.55;;;17.40;99.90;;;;;;5021639;28;20022;-74
2021/08/11 07:10:54;;;;;;;7.65;6.22;;;17.50;99.90;;;;;;5019435;28;20392;-73
2021/08/11 07:13:21;;;;;;;7.47;5.90;;;17.70;99.90;;;;;;5022608;28;20021;-75
2021/08/11 07:15:46;;;;;;;8.20;5.78;;;17.70;99.90;;;;;;5018980;28;20032;-73
2021/08/11 07:18:16;;;;;;;8.02;5.63;;;18.00;99.90;;;;;;5020021;28;20033;-74
2021/08/11 07:20:42;;;;;;;7.88;6.30;;;18.20;99.90;;;;;;5015956;28;20022;-73
2021/08/11 07:23:07;;;;;;;6.93;5.45;;;18.30;99.90;;;;;;5011842;28;20022;-73
2021/08/11 07:25:33;;;;;;;9.52;5.80;;;18.60;99.90;;;;;;5009477;28;20370;-73
2021/08/11 07:27:59;;;;;;;6.95;5.28;;;18.60;99.90;;;;;;5011922;28;20030;-73
2021/08/11 07:30:25;;;;;;;5.90;5.30;;;18.70;99.90;;;;;;5010631;28;20029;-73
2021/08/11 07:32:50;;;;;;;9.98;6.13;;;18.80;99.90;;;;;;5011861;28;20431;-73
2021/08/11 07:35:16;;;;;;;6.55;4.80;;;18.90;99.90;;;;;;5009547;28;20033;-73
2021/08/11 07:37:52;;;;;;;8.88;4.93;;;19.00;99.90;;;;;;5011759;28;20112;-73
2021/08/11 07:40:19;;;;;;;7.00;4.70;;;19.30;99.90;;;;;;5011657;28;20029;-73
2021/08/11 07:42:46;;;;;;;11.38;5.00;;;19.50;99.90;;;;;;5009588;28;20096;-74
2021/08/11 07:45:14;;;;;;;7.85;4.50;;;19.60;99.90;;;;;;5010657;28;20022;-73
2021/08/11 07:47:40;;;;;;;8.20;4.63;;;19.70;99.90;;;;;;5010957;28;20502;-74
2021/08/11 07:50:06;;;;;;;5.93;4.07;;;19.90;99.90;;;;;;5043172;28;20044;-73
2021/08/11 07:52:32;;;;;;;7.22;4.90;;;20.10;99.90;;;;;;5051001;28;20506;-73
2021/08/11 07:54:58;;;;;;;7.57;4.43;;;20.30;99.90;;;;;;5050237;28;20029;-73
2021/08/11 07:57:23;;;;;;;5.00;4.35;;;20.40;99.90;;;;;;5051125;28;20375;-73
2021/08/11 07:59:49;;;;;;;9.45;4.30;;;20.70;99.90;;;;;;5049613;28;20028;-73
2021/08/11 08:02:15;;;;;;;10.60;4.95;;;21.00;99.90;;;;;;5050768;28;20386;-73
2021/08/11 08:04:41;;;;;;;6.22;4.00;;;21.20;99.90;;;;;;5033325;28;20506;-73
2021/08/11 08:07:07;;;;;;;7.40;4.57;;;21.10;99.90;;;;;;5029034;28;20029;-74
2021/08/11 08:09:33;;;;;;;9.00;4.10;;;21.50;99.90;;;;;;5030806;28;20113;-73
2021/08/11 08:11:59;;;;;;;7.10;3.83;;;22.00;99.90;;;;;;5030631;28;20117;-73
2021/08/11 08:14:24;;;;;;;5.63;4.30;;;21.90;99.90;;;;;;5032666;28;20033;-74
2021/08/11 08:16:50;;;;;;;5.47;3.85;;;22.00;99.90;;;;;;5051013;28;20060;-72
2021/08/11 08:19:15;;;;;;;5.63;3.63;;;22.10;99.90;;;;;;5050528;28;20021;-73
2021/08/11 08:21:41;;;;;;;5.32;3.60;;;22.20;99.90;;;;;;5050736;28;20107;-72
2021/08/11 08:24:07;;;;;;;3.83;3.17;;;22.20;99.90;;;;;;5050737;28;20060;-72
2021/08/11 08:26:33;;;;;;;5.53;3.85;;;22.50;99.90;;;;;;5050401;28;20021;-74
2021/08/11 08:28:58;;;;;;;4.32;3.67;;;22.50;99.90;;;;;;5050703;28;20053;-74
2021/08/11 08:31:24;;;;;;;4.57;3.40;;;22.50;99.90;;;;;;5050687;28;20060;-74
2021/08/11 08:33:49;;;;;;;6.25;3.53;;;22.70;99.90;;;;;;5050373;28;20029;-74
2021/08/11 08:36:15;;;;;;;5.88;3.42;;;23.00;99.90;;;;;;5049423;28;20031;-74
2021/08/11 08:38:41;;;;;;;4.25;3.20;;;23.40;99.90;;;;;;5050047;28;20047;-74
2021/08/11 08:41:09;;;;;;;8.38;3.42;;;23.80;99.90;;;;;;5046432;28;20079;-74
2021/08/11 08:43:35;;;;;;;4.30;3.60;;;24.10;99.90;;;;;;5031968;28;20045;-73
2021/08/11 08:46:01;;;;;;;3.20;2.80;;;24.90;99.90;;;;;;5031171;28;20033;-73
2021/08/11 08:48:27;;;;;;;3.60;2.58;;;25.30;99.90;;;;;;5029880;28;20036;-73
2021/08/11 08:50:53;;;;;;;7.05;3.28;;;25.50;99.90;;;;;;5031560;28;20086;-73
2021/08/11 08:53:23;;;;;;;4.15;2.83;;;26.00;99.90;;;;;;5032712;28;20125;-72
2021/08/11 08:55:51;;;;;;;4.05;3.15;;;26.20;99.90;;;;;;5037751;28;20026;-74
2021/08/11 08:58:18;;;;;;;5.28;2.80;;;26.40;99.90;;;;;;5034161;28;20110;-73
2021/08/11 09:00:44;;;;;;;5.53;2.90;;;26.70;99.90;;;;;;5032670;28;20021;-74
2021/08/11 09:03:09;;;;;;;7.38;2.95;;;27.00;99.90;;;;;;5034913;28;20034;-73
2021/08/11 09:05:35;;;;;;;4.47;3.10;;;27.10;99.90;;;;;;5031744;28;20076;-72
2021/08/11 09:08:01;;;;;;;5.75;2.95;;;27.50;99.90;;;;;;5034129;28;20714;-74
2021/08/11 09:10:30;;;;;;;6.85;3.10;;;28.20;99.90;;;;;;5033874;28;20030;-74
2021/08/11 09:12:59;;;;;;;5.78;2.65;;;27.80;99.90;;;;;;5052907;28;20091;-73
2021/08/11 09:15:30;;;;;;;5.30;2.60;;;27.40;99.90;;;;;;5052931;28;20033;-73
2021/08/11 09:17:57;;;;;;;5.35;2.85;;;27.10;99.90;;;;;;5053526;28;20029;-73
2021/08/11 09:20:27;;;;;;;4.55;3.25;;;27.50;99.90;;;;;;5053330;28;20090;-74
2021/08/11 09:22:55;;;;;;;3.75;2.72;;;26.60;99.90;;;;;;5052494;28;20079;-73
2021/08/11 09:25:21;;;;;;;3.03;2.83;;;26.40;99.90;;;;;;5052855;28;20060;-73
2021/08/11 09:27:48;;;;;;;5.13;2.80;;;27.50;99.90;;;;;;5053526;28;20372;-74
2021/08/11 09:30:17;;;;;;;6.50;3.13;;;29.30;99.90;;;;;;5051763;28;20036;-72
2021/08/11 09:33:04;;;;;;;3.47;2.72;;;30.50;99.90;;;;;;5053431;28;20035;-74
2021/08/11 09:35:38;;;;;;;3.30;2.70;;;30.10;99.70;;;;;;5052469;28;20025;-73
2021/08/11 09:38:11;;;;;;;5.47;2.58;;;29.50;99.90;;;;;;5053554;28;20074;-73
2021/08/11 09:40:38;;;;;;;2.78;2.38;;;29.10;99.90;;;;;;5053358;28;20490;-74
2021/08/11 09:43:08;;;;;;;5.43;2.90;;;29.10;99.90;;;;;;5054208;28;20104;-73
2021/08/11 09:45:44;;;;;;;3.83;2.47;;;28.70;99.60;;;;;;5051487;28;20044;-73
2021/08/11 09:48:10;;;;;;;3.70;2.85;;;28.80;99.90;;;;;;5053561;28;20029;-73
2021/08/11 09:50:49;;;;;;;6.13;2.50;;;28.70;99.90;;;;;;5053225;28;20032;-74
2021/08/11 09:53:40;;;;;;;5.15;3.05;;;29.20;99.90;;;;;;5053437;28;20025;-73
2021/08/11 09:56:12;;;;;;;4.40;2.40;;;29.20;99.90;;;;;;5052470;28;20025;-73
2021/08/11 09:58:43;;;;;;;2.60;2.40;;;29.90;99.90;;;;;;5052618;28;20317;-73
2021/08/11 10:01:12;;;;;;;3.47;2.45;;;30.40;98.00;;;;;;5053398;28;20024;-72
2021/08/11 10:04:01;;;;;;;2.50;2.30;;;31.00;97.60;;;;;;5050574;28;20075;-73
2021/08/11 10:06:31;;;;;;;2.53;2.33;;;30.90;97.30;;;;;;5049030;28;20441;-72
2021/08/11 10:09:24;;;;;;;4.88;2.53;;;31.00;97.80;;;;;;5051155;28;20104;-73
2021/08/11 10:11:55;;;;;;;3.40;2.80;;;32.80;95.40;;;;;;5052274;28;20025;-73
2021/08/11 10:14:27;;;;;;;3.80;2.45;;;34.10;92.50;;;;;;5051747;28;20024;-74
2021/08/11 10:16:54;;;;;;;2.88;2.38;;;33.70;91.10;;;;;;5052260;28;20550;-71
2021/08/11 10:19:24;;;;;;;4.00;2.70;;;32.40;92.00;;;;;;5052221;28;20056;-71
2021/08/11 10:22:01;;;;;;;3.40;2.40;;;32.50;94.20;;;;;;5052362;28;20029;-72
2021/08/11 10:24:31;;;;;;;3.85;2.13;;;32.70;92.40;;;;;;5051804;28;20060;-72
2021/08/11 10:26:58;;;;;;;2.53;2.33;;;32.30;93.30;;;;;;5051141;28;20045;-75
2021/08/11 10:29:25;;;;;;;2.97;2.40;;;32.60;92.40;;;;;;5102649;22;20107;-71
2021/08/11 10:31:51;;;;;;;2.28;2.08;;;32.50;91.70;;;;;;5027892;28;20083;-70
2021/08/11 10:34:18;;;;;;;5.13;2.47;;;32.70;90.80;;;;;;5037044;28;20029;-71
2021/08/11 10:36:45;;;;;;;3.17;2.92;;;32.50;90.60;;;;;;5046789;28;20009;-72
2021/08/11 10:39:13;;;;;;;3.28;2.78;;;32.70;92.10;;;;;;5031599;28;20101;-72
2021/08/11 10:41:39;;;;;;;6.18;3.10;;;33.10;89.00;;;;;;5032162;28;20022;-71
2021/08/11 10:44:14;;;;;;;3.92;2.95;;;32.40;90.00;;;;;;5032403;28;20099;-71
2021/08/11 10:46:43;;;;;;;3.80;3.00;;;31.70;90.80;;;;;;5013940;28;20049;-72
2021/08/11 10:49:19;;;;;;;2.95;2.72;;;30.50;91.90;;;;;;5032185;28;20097;-73
2021/08/11 10:51:49;;;;;;;4.13;3.83;;;29.70;92.70;;;;;;5032123;28;20099;-71
2021/08/11 10:54:16;;;;;;;4.97;3.60;;;30.80;93.10;;;;;;5031094;28;20026;-72
2021/08/11 10:56:53;;;;;;;3.40;3.20;;;32.00;92.10;;;;;;5031994;28;20025;-74
2021/08/11 10:59:21;;;;;;;3.65;3.35;;;32.60;90.70;;;;;;5031867;28;20475;-72
2021/08/11 11:01:48;;;;;;;3.25;2.92;;;32.80;89.90;;;;;;5031962;28;20472;-74
2021/08/11 11:04:37;;;;;;;3.85;3.53;;;31.80;90.00;;;;;;5037723;28;20479;-74
2021/08/11 11:07:09;;;;;;;6.13;3.92;;;30.60;91.50;;;;;;5051654;28;20443;-73
2021/08/11 11:09:35;;;;;;;5.78;3.58;;;30.00;91.40;;;;;;5051764;28;20019;-73
2021/08/11 11:12:30;;;;;;;6.18;4.00;;;29.70;92.90;;;;;;5051787;28;20439;-73
2021/08/11 11:14:57;;;;;;;5.05;4.00;;;30.30;93.00;;;;;;5037515;28;20044;-73
2021/08/11 11:17:30;;;;;;;4.47;3.85;;;31.10;92.90;;;;;;5034264;28;20107;-71
2021/08/11 11:22:36;;;;;;;5.72;3.78;;;33.10;88.20;;;;;;5048882;28;20032;-71
2021/08/11 11:25:10;;;;;;;6.05;3.50;;;32.80;88.60;;;;;;5013203;28;20040;-73
2021/08/11 11:27:38;;;;;;;4.97;3.45;;;31.70;89.10;;;;;;5031392;28;20117;-70
2021/08/11 11:30:06;;;;;;;4.88;4.13;;;30.50;90.60;;;;;;5031593;28;20104;-72
2021/08/11 11:32:31;;;;;;;5.88;4.00;;;29.50;91.70;;;;;;5031696;28;20029;-72
2021/08/11 11:35:23;;;;;;;5.32;4.07;;;29.40;92.00;;;;;;5030477;28;20041;-71
2021/08/11 11:38:09;;;;;;;4.10;3.80;;;30.10;91.60;;;;;;5013827;28;20036;-71
2021/08/11 11:40:56;;;;;;;5.32;3.72;;;30.20;92.10;;;;;;5031312;28;20032;-71
2021/08/11 11:43:23;;;;;;;8.18;4.00;;;30.90;91.40;;;;;;5026826;28;20129;-72
2021/08/11 11:45:49;;;;;;;6.10;3.85;;;30.60;92.10;;;;;;5012952;28;20048;-73
2021/08/11 11:48:15;;;;;;;4.97;4.22;;;31.40;93.30;;;;;;5031523;28;20476;-73
2021/08/11 11:50:43;;;;;;;7.47;4.75;;;31.70;90.20;;;;;;5049115;28;20017;-73
2021/08/11 11:53:19;;;;;;;4.53;4.13;;;31.10;89.80;;;;;;5033542;28;20132;-71
2021/08/11 11:55:44;;;;;;;4.65;3.95;;;31.20;91.90;;;;;;5050053;28;20021;-70
2021/08/11 11:58:13;;;;;;;4.85;4.40;;;32.40;89.10;;;;;;5050972;28;20021;-71
2021/08/11 12:00:40;;;;;;;4.63;4.22;;;32.50;84.90;;;;;;5039598;28;20030;-71
2021/08/11 12:03:06;;;;;;;5.70;4.68;;;31.60;85.20;;;;;;5030736;28;20022;-72
2021/08/11 12:05:45;;;;;;;5.85;4.60;;;31.40;86.70;;;;;;5012199;28;20048;-71
2021/08/11 12:08:12;;;;;;;6.38;4.78;;;31.10;90.40;;;;;;5030909;28;20438;-72
2021/08/11 12:10:39;;;;;;;13.60;4.22;;;30.60;90.20;;;;;;5040204;28;20021;-72
2021/08/11 12:13:05;;;;;;;5.20;4.18;;;30.10;92.10;;;;;;5050631;28;20100;-72
2021/08/11 12:15:34;;;;;;;4.28;3.92;;;30.30;92.80;;;;;;5050052;28;20472;-72
2021/08/11 12:18:12;;;;;;;6.22;4.03;;;30.50;92.90;;;;;;5030505;28;20026;-72
2021/08/11 12:20:38;;;;;;;4.97;4.32;;;31.10;91.10;;;;;;5031153;28;20024;-71
2021/08/11 12:23:22;;;;;;;4.88;4.20;;;31.60;91.30;;;;;;5030734;28;20030;-71
2021/08/11 12:25:53;;;;;;;7.57;3.88;;;31.80;89.70;;;;;;5030131;28;20029;-71
2021/08/11 12:28:21;;;;;;;4.80;4.28;;;31.90;90.20;;;;;;5012829;28;20033;-71
2021/08/11 12:30:50;;;;;;;6.38;4.38;;;32.50;87.70;;;;;;5049581;28;20101;-71
2021/08/11 12:33:19;;;;;;;6.60;4.03;;;31.80;89.20;;;;;;5050926;28;20032;-72
2021/08/11 12:35:45;;;;;;;5.75;3.90;;;32.20;90.40;;;;;;5038897;28;20033;-71
2021/08/11 12:38:11;;;;;;;4.55;3.67;;;32.20;89.70;;;;;;5034432;28;20052;-71
2021/08/11 12:40:40;;;;;;;5.97;3.67;;;31.80;88.20;;;;;;5045929;28;20025;-71
2021/08/11 12:43:07;;;;;;;4.03;3.72;;;31.40;88.70;;;;;;5054087;28;20052;-71
2021/08/11 12:45:52;;;;;;;4.25;3.47;;;31.50;90.40;;;;;;5053919;28;20454;-73
2021/08/11 12:48:44;;;;;;;7.60;3.95;;;31.40;91.20;;;;;;5055611;28;20120;-73